Time;durP1;ratioP1;P1;durP2;ratioP2;P2;SDS_P1;SDS_P2;PMS_P1;PMS_P2;Temp;Humidity;BMP_temperature;BMP_pressure;BME280_temperature;BME280_humidity;BME280_pressure;Samples;Min_cycle;Max_cycle;Signal;HPM_P1;HPM_P2
2022/06/23 00:02:06;;;;;;;8.55;4.32;;;18.40;99.90;;;;;;5037234;28;20310;-57
2022/06/23 00:04:39;;;;;;;16.02;4.88;;;18.40;99.90;;;;;;5037248;28;20181;-57
2022/06/23 00:07:18;;;;;;;9.95;4.32;;;18.40;99.90;;;;;;5037378;28;20695;-57
2022/06/23 00:09:44;;;;;;;10.77;5.20;;;18.40;99.90;;;;;;5037263;28;20518;-58
2022/06/23 00:12:35;;;;;;;11.90;4.63;;;18.40;99.90;;;;;;5019422;28;20185;-57
2022/06/23 00:15:01;;;;;;;14.95;5.63;;;18.30;99.90;;;;;;5026478;28;20193;-57
2022/06/23 00:17:29;;;;;;;7.68;3.72;;;18.20;99.90;;;;;;5036999;28;20233;-57
2022/06/23 00:19:58;;;;;;;9.98;4.68;;;18.20;99.90;;;;;;5037060;28;20174;-57
2022/06/23 00:22:26;;;;;;;8.95;4.47;;;18.20;99.90;;;;;;5037095;28;20185;-57
2022/06/23 00:24:56;;;;;;;10.48;4.65;;;18.10;99.90;;;;;;5037054;28;20263;-57
2022/06/23 00:27:28;;;;;;;9.40;5.07;;;18.00;99.90;;;;;;5037455;28;20181;-57
2022/06/23 00:30:16;;;;;;;10.23;4.50;;;17.90;99.90;;;;;;5037325;28;20216;-58
2022/06/23 00:32:42;;;;;;;12.80;4.25;;;17.80;99.90;;;;;;5036990;28;20166;-56
2022/06/23 00:35:14;;;;;;;11.60;4.40;;;17.80;99.90;;;;;;5037017;28;20210;-58
2022/06/23 00:37:49;;;;;;;7.25;4.57;;;17.80;99.90;;;;;;5036933;28;20189;-57
2022/06/23 00:40:20;;;;;;;8.70;4.90;;;17.70;99.90;;;;;;5036982;28;20169;-57
2022/06/23 00:43:01;;;;;;;10.10;4.55;;;17.60;99.90;;;;;;5036952;28;20319;-57
2022/06/23 00:45:43;;;;;;;10.57;5.00;;;17.70;99.90;;;;;;5036841;28;20723;-57
2022/06/23 00:48:21;;;;;;;14.15;4.93;;;17.60;99.90;;;;;;5036876;28;20177;-57
2022/06/23 00:51:11;;;;;;;8.45;4.22;;;17.60;99.90;;;;;;5037036;28;20185;-58
2022/06/23 00:53:53;;;;;;;10.90;4.40;;;17.50;99.90;;;;;;5036286;28;20189;-57
2022/06/23 00:56:30;;;;;;;8.70;4.32;;;17.50;99.90;;;;;;5036681;28;20206;-57
2022/06/23 00:59:14;;;;;;;8.50;4.53;;;17.50;99.90;;;;;;5036824;28;20174;-58
2022/06/23 01:02:02;;;;;;;8.23;4.28;;;17.50;99.90;;;;;;5036663;28;20761;-58
2022/06/23 01:04:40;;;;;;;6.00;4.00;;;17.50;99.90;;;;;;5032952;28;20672;-57
2022/06/23 01:07:11;;;;;;;9.50;4.20;;;17.50;99.90;;;;;;5033654;28;20223;-57
2022/06/23 01:09:54;;;;;;;7.90;4.13;;;17.50;99.90;;;;;;5033665;28;20166;-58
2022/06/23 01:12:22;;;;;;;10.93;3.78;;;17.60;99.90;;;;;;5033433;28;20201;-57
2022/06/23 01:15:17;;;;;;;8.18;4.15;;;17.70;99.90;;;;;;5033723;28;20185;-57
2022/06/23 01:17:50;;;;;;;7.70;4.13;;;17.70;99.90;;;;;;5033372;28;20194;-57
2022/06/23 01:20:22;;;;;;;9.02;4.60;;;17.60;99.90;;;;;;5033326;28;20675;-57
2022/06/23 01:23:00;;;;;;;7.00;4.10;;;17.50;99.90;;;;;;5033279;28;20276;-57
2022/06/23 01:25:44;;;;;;;7.65;4.30;;;17.50;99.90;;;;;;5033453;28;20248;-57
2022/06/23 01:28:17;;;;;;;7.78;4.80;;;17.50;99.90;;;;;;5033181;28;20273;-57
2022/06/23 01:31:11;;;;;;;10.02;4.85;;;17.40;99.90;;;;;;5033162;28;20174;-57
2022/06/23 01:34:02;;;;;;;9.98;5.10;;;17.40;99.90;;;;;;5033343;28;20321;-57
2022/06/23 01:36:42;;;;;;;11.20;4.90;;;17.40;99.90;;;;;;5033077;28;20248;-57
2022/06/23 01:39:34;;;;;;;9.65;5.00;;;17.30;99.90;;;;;;5033023;28;20613;-57
2022/06/23 01:42:14;;;;;;;9.35;5.00;;;17.20;99.90;;;;;;5033066;28;20166;-57
2022/06/23 01:45:03;;;;;;;7.30;4.40;;;17.20;99.90;;;;;;5032995;28;20703;-58
2022/06/23 01:47:35;;;;;;;10.93;4.38;;;17.20;99.90;;;;;;5032847;28;20253;-57
2022/06/23 01:50:12;;;;;;;10.60;5.07;;;17.10;99.90;;;;;;5032876;28;20182;-57
2022/06/23 01:52:40;;;;;;;8.38;4.45;;;17.00;99.90;;;;;;5032771;28;20166;-57
2022/06/23 01:55:16;;;;;;;7.47;4.70;;;17.00;99.90;;;;;;5032878;28;20178;-57
2022/06/23 01:57:55;;;;;;;7.45;4.20;;;16.90;99.90;;;;;;5032661;28;20177;-57
2022/06/23 02:00:23;;;;;;;11.27;4.90;;;16.90;99.90;;;;;;5032552;28;20252;-56
2022/06/23 02:03:30;;;;;;;7.45;4.55;;;16.90;99.90;;;;;;5032360;28;20753;-57
2022/06/23 02:06:03;;;;;;;12.43;5.70;;;16.80;99.90;;;;;;5021820;28;20189;-57
2022/06/23 02:08:42;;;;;;;10.98;4.90;;;16.70;99.90;;;;;;5014637;28;20264;-57
2022/06/23 02:11:43;;;;;;;12.85;5.30;;;16.60;99.90;;;;;;5032404;28;20173;-57
2022/06/23 02:14:19;;;;;;;13.23;5.13;;;16.60;99.90;;;;;;5032491;28;20178;-57
2022/06/23 02:17:02;;;;;;;15.13;5.80;;;16.50;99.90;;;;;;5032182;28;20672;-58
2022/06/23 02:19:52;;;;;;;12.38;4.70;;;16.50;99.90;;;;;;5032215;28;20178;-57
2022/06/23 02:22:34;;;;;;;10.07;5.00;;;16.60;99.90;;;;;;5032292;28;20177;-57
2022/06/23 02:25:32;;;;;;;8.57;5.20;;;16.50;99.90;;;;;;5032125;28;20200;-57
2022/06/23 02:28:11;;;;;;;11.65;5.60;;;16.60;99.90;;;;;;5016881;28;20205;-57
2022/06/23 02:31:04;;;;;;;11.93;5.50;;;16.50;99.90;;;;;;5032058;28;20240;-57
2022/06/23 02:34:05;;;;;;;20.30;6.97;;;16.40;99.90;;;;;;5021406;28;20218;-58
2022/06/23 02:36:53;;;;;;;21.73;6.22;;;16.30;99.90;;;;;;5027446;28;20253;-58
2022/06/23 02:39:46;;;;;;;11.73;5.85;;;16.30;99.90;;;;;;5031997;28;20170;-61
2022/06/23 02:42:22;;;;;;;14.07;5.65;;;16.20;99.90;;;;;;5031820;28;20185;-57
2022/06/23 02:44:48;;;;;;;12.23;6.35;;;16.30;99.90;;;;;;5031880;28;20189;-58
2022/06/23 02:47:35;;;;;;;8.32;5.60;;;16.30;99.90;;;;;;5031723;28;20261;-58
2022/06/23 02:50:11;;;;;;;13.88;5.90;;;16.30;99.90;;;;;;5031664;28;20185;-58
2022/06/23 02:53:11;;;;;;;10.95;6.25;;;16.30;99.90;;;;;;5031617;28;20181;-57
2022/06/23 02:56:12;;;;;;;10.10;6.15;;;16.30;99.90;;;;;;5031596;28;20201;-58
2022/06/23 02:58:51;;;;;;;11.57;5.72;;;16.30;99.90;;;;;;5031579;28;20710;-57
2022/06/23 03:01:40;;;;;;;10.18;5.75;;;16.30;99.90;;;;;;5031304;28;20238;-57
2022/06/23 03:04:20;;;;;;;9.10;6.05;;;16.30;99.90;;;;;;5031506;28;20181;-58
2022/06/23 03:07:03;;;;;;;13.10;6.35;;;16.30;99.90;;;;;;5031407;28;20645;-57
2022/06/23 03:09:43;;;;;;;10.70;6.88;;;16.10;99.90;;;;;;5031225;28;20789;-57
2022/06/23 03:12:12;;;;;;;18.02;6.65;;;16.10;99.90;;;;;;5031291;28;20211;-58
2022/06/23 03:14:47;;;;;;;10.73;6.35;;;16.10;99.90;;;;;;5031328;28;20190;-57
2022/06/23 03:17:39;;;;;;;11.95;6.78;;;16.00;99.90;;;;;;5031237;28;20223;-57
2022/06/23 03:20:33;;;;;;;8.85;6.40;;;16.00;99.90;;;;;;5017241;28;20649;-58
2022/06/23 03:23:26;;;;;;;14.27;6.30;;;16.00;99.90;;;;;;5031123;28;20166;-58
2022/06/23 03:26:19;;;;;;;10.90;6.28;;;16.00;99.90;;;;;;5030947;28;20640;-58
2022/06/23 03:29:04;;;;;;;8.38;6.38;;;16.00;99.90;;;;;;5030795;28;20598;-57
2022/06/23 03:31:42;;;;;;;17.90;7.03;;;16.00;99.90;;;;;;5031056;28;20264;-58
2022/06/23 03:34:32;;;;;;;13.48;7.03;;;16.00;99.90;;;;;;5031061;28;20228;-57
2022/06/23 03:37:12;;;;;;;11.77;7.13;;;15.90;99.90;;;;;;5030864;28;20228;-57
2022/06/23 03:42:44;;;;;;;15.05;7.13;;;16.00;99.90;;;;;;5030923;28;20532;-57
2022/06/23 03:45:33;;;;;;;12.13;7.18;;;15.90;99.90;;;;;;5031042;28;20178;-57
2022/06/23 03:48:19;;;;;;;10.10;7.00;;;15.90;99.90;;;;;;5030782;28;20701;-57
2022/06/23 03:50:48;;;;;;;13.35;7.53;;;15.90;99.90;;;;;;5030243;28;20280;-57
2022/06/23 03:53:27;;;;;;;13.88;7.22;;;16.00;99.90;;;;;;5030999;28;20257;-57
2022/06/23 03:55:57;;;;;;;10.00;6.82;;;16.00;99.90;;;;;;5030904;28;20210;-57
2022/06/23 03:58:29;;;;;;;11.85;7.40;;;15.90;99.90;;;;;;5013146;28;20173;-57
2022/06/23 04:01:04;;;;;;;9.85;7.32;;;16.00;99.90;;;;;;5030834;28;20253;-57
2022/06/23 04:04:00;;;;;;;11.43;7.50;;;14.80;99.90;;;;;;4669467;22;21398;-55
2022/06/23 04:06:43;;;;;;;9.95;6.45;;;15.90;99.90;;;;;;4970218;28;20334;-64
2022/06/23 04:09:33;;;;;;;11.00;7.22;;;15.90;99.90;;;;;;4971821;28;20183;-64
2022/06/23 04:12:09;;;;;;;14.10;7.57;;;15.90;99.90;;;;;;4971626;28;20638;-63
2022/06/23 04:15:06;;;;;;;15.77;7.63;;;16.00;99.90;;;;;;4971785;28;20210;-63
2022/06/23 04:17:32;;;;;;;14.77;7.22;;;15.90;99.90;;;;;;4971719;28;20215;-64
2022/06/23 04:20:32;;;;;;;10.10;7.13;;;15.90;99.90;;;;;;4971765;28;20164;-64
2022/06/23 04:23:04;;;;;;;10.40;7.38;;;15.90;99.90;;;;;;4971737;28;20191;-64
2022/06/23 04:25:48;;;;;;;13.02;7.65;;;15.90;99.90;;;;;;4971672;28;20187;-64
2022/06/23 04:28:29;;;;;;;22.20;6.78;;;16.00;99.90;;;;;;4971666;28;20780;-65
2022/06/23 04:30:58;;;;;;;13.02;7.28;;;16.00;99.90;;;;;;4971683;28;20168;-64
2022/06/23 04:33:26;;;;;;;14.00;7.50;;;15.90;99.90;;;;;;4971670;28;20164;-64
2022/06/23 04:35:55;;;;;;;12.38;6.65;;;15.90;99.90;;;;;;4971535;28;20208;-64
2022/06/23 04:38:39;;;;;;;11.88;7.28;;;15.80;99.90;;;;;;4973053;28;20172;-63
2022/06/23 04:41:14;;;;;;;11.85;6.80;;;15.80;99.90;;;;;;4975260;28;20187;-63
2022/06/23 04:43:45;;;;;;;14.25;7.90;;;15.80;99.90;;;;;;4975224;28;20171;-63
2022/06/23 04:46:26;;;;;;;10.98;7.30;;;15.80;99.90;;;;;;4975797;28;20179;-64
2022/06/23 04:49:15;;;;;;;10.35;7.00;;;15.80;99.90;;;;;;4975186;28;20164;-63
2022/06/23 04:52:02;;;;;;;14.15;7.68;;;15.90;99.90;;;;;;4974996;28;20187;-63
2022/06/23 04:54:36;;;;;;;15.88;7.47;;;15.80;99.90;;;;;;4975062;28;20164;-62
2022/06/23 04:57:12;;;;;;;12.88;7.75;;;15.80;99.90;;;;;;4974897;28;20203;-63
2022/06/23 04:59:55;;;;;;;12.93;7.18;;;15.80;99.90;;;;;;4974880;28;20274;-63
2022/06/23 05:02:43;;;;;;;11.65;7.43;;;15.80;99.90;;;;;;4975007;28;20649;-63
2022/06/23 05:05:21;;;;;;;13.90;7.30;;;15.90;99.90;;;;;;4974476;28;20223;-64
2022/06/23 05:07:55;;;;;;;11.90;7.28;;;15.90;99.90;;;;;;4974858;28;20202;-63
2022/06/23 05:10:31;;;;;;;14.02;7.50;;;15.90;99.90;;;;;;4974597;28;20208;-63
2022/06/23 05:13:05;;;;;;;15.52;7.50;;;16.00;99.90;;;;;;4974672;28;20258;-63
2022/06/23 05:15:33;;;;;;;18.00;7.30;;;16.00;99.90;;;;;;4974578;28;20215;-64
2022/06/23 05:18:18;;;;;;;15.45;6.80;;;16.00;99.90;;;;;;4974519;28;20262;-64
2022/06/23 05:20:57;;;;;;;17.08;7.50;;;16.10;99.90;;;;;;4974374;28;20627;-64
2022/06/23 05:23:42;;;;;;;13.27;6.72;;;16.10;99.90;;;;;;4974537;28;20594;-65
2022/06/23 05:26:15;;;;;;;11.68;6.18;;;16.10;99.90;;;;;;4974522;28;20266;-64
2022/06/23 05:28:42;;;;;;;12.15;6.43;;;16.20;99.90;;;;;;4974391;28;20630;-64
2022/06/23 05:31:19;;;;;;;13.90;6.28;;;16.20;99.90;;;;;;4974153;28;20710;-64
2022/06/23 05:33:53;;;;;;;16.23;6.03;;;16.30;99.90;;;;;;4974151;28;20238;-64
2022/06/23 05:36:26;;;;;;;8.82;5.50;;;16.30;99.90;;;;;;4974185;28;20207;-63
2022/06/23 05:39:02;;;;;;;8.68;4.97;;;16.40;99.90;;;;;;4973983;28;20839;-64
2022/06/23 05:41:39;;;;;;;10.23;4.57;;;16.50;99.90;;;;;;4974174;28;20179;-63
2022/06/23 05:44:25;;;;;;;10.18;4.90;;;16.50;99.90;;;;;;4974094;28;20182;-63
2022/06/23 05:46:53;;;;;;;9.25;4.75;;;16.60;99.90;;;;;;4974177;28;20227;-64
2022/06/23 05:49:26;;;;;;;12.00;4.97;;;16.70;99.90;;;;;;4973464;28;20180;-62
2022/06/23 05:52:06;;;;;;;11.60;4.75;;;16.80;99.90;;;;;;4973884;28;20198;-63
2022/06/23 05:55:05;;;;;;;13.23;4.90;;;16.90;99.90;;;;;;4973973;28;20261;-65
2022/06/23 05:57:43;;;;;;;13.75;6.07;;;17.00;99.90;;;;;;4972836;28;20215;-64
2022/06/23 06:00:19;;;;;;;11.32;5.45;;;17.10;99.90;;;;;;4973934;28;20176;-65
2022/06/23 06:03:00;;;;;;;10.85;5.68;;;17.00;99.90;;;;;;4973843;28;20591;-64
2022/06/23 06:05:35;;;;;;;12.57;5.20;;;17.10;99.90;;;;;;4973641;28;20222;-64
2022/06/23 06:08:06;;;;;;;8.52;4.25;;;17.20;99.90;;;;;;4973677;28;20179;-64
2022/06/23 06:10:34;;;;;;;16.17;5.65;;;17.20;99.90;;;;;;4973648;28;20180;-64
2022/06/23 06:13:02;;;;;;;10.32;5.55;;;17.30;99.90;;;;;;4973627;28;20634;-64
2022/06/23 06:15:38;;;;;;;12.13;5.32;;;17.30;99.90;;;;;;4973582;28;20180;-65
2022/06/23 06:18:28;;;;;;;10.20;5.40;;;17.40;99.90;;;;;;4973524;28;20263;-65
2022/06/23 06:20:58;;;;;;;7.82;4.80;;;17.50;99.90;;;;;;4968508;28;20182;-64
2022/06/23 06:23:53;;;;;;;10.02;5.28;;;17.60;99.90;;;;;;4973336;28;20168;-65
2022/06/23 06:26:23;;;;;;;9.75;4.85;;;17.50;99.90;;;;;;4973325;28;20207;-64
2022/06/23 06:28:49;;;;;;;7.97;4.90;;;17.60;99.90;;;;;;4973341;28;20168;-65
2022/06/23 06:31:35;;;;;;;12.68;4.68;;;17.60;99.90;;;;;;4973193;28;20180;-65
2022/06/23 06:34:19;;;;;;;11.07;4.75;;;17.60;99.90;;;;;;4973351;28;20196;-64
2022/06/23 06:36:48;;;;;;;10.35;4.70;;;17.80;99.90;;;;;;4973015;28;20211;-64
2022/06/23 06:39:18;;;;;;;9.88;4.70;;;17.90;99.90;;;;;;4973109;28;20195;-64
2022/06/23 06:41:49;;;;;;;15.88;4.78;;;18.10;99.90;;;;;;4972727;28;20241;-64
2022/06/23 06:44:17;;;;;;;10.55;4.78;;;18.20;99.90;;;;;;4972792;28;20263;-65
2022/06/23 06:46:44;;;;;;;11.63;5.38;;;18.30;99.90;;;;;;4972847;28;20171;-64
2022/06/23 06:49:17;;;;;;;9.20;5.22;;;18.30;99.90;;;;;;4972729;28;20183;-65
2022/06/23 06:51:44;;;;;;;12.77;5.28;;;18.40;99.90;;;;;;4972565;28;20190;-64
2022/06/23 06:54:18;;;;;;;14.68;5.03;;;18.60;99.90;;;;;;4972825;28;20183;-64
2022/06/23 06:56:45;;;;;;;11.10;5.22;;;18.60;99.90;;;;;;4972503;28;20294;-64
2022/06/23 06:59:24;;;;;;;11.95;5.07;;;18.70;99.90;;;;;;4972724;28;20186;-64
2022/06/23 07:02:10;;;;;;;10.82;4.53;;;18.80;99.90;;;;;;4971623;28;20728;-64
2022/06/23 07:04:51;;;;;;;8.60;5.00;;;19.00;99.90;;;;;;4972467;28;20501;-64
2022/06/23 07:07:24;;;;;;;15.63;5.50;;;19.00;99.90;;;;;;4972299;28;20199;-65
2022/06/23 07:09:59;;;;;;;8.25;4.68;;;19.10;99.90;;;;;;4972448;28;20176;-64
2022/06/23 07:12:28;;;;;;;14.25;5.25;;;19.20;99.90;;;;;;4971320;28;20187;-64
2022/06/23 07:15:03;;;;;;;9.35;5.05;;;19.30;99.90;;;;;;4972797;28;20195;-64
2022/06/23 07:17:40;;;;;;;9.20;4.57;;;19.40;99.90;;;;;;4972335;28;20226;-65
2022/06/23 07:20:15;;;;;;;10.82;5.20;;;19.50;99.90;;;;;;4972436;28;20164;-65
2022/06/23 07:23:04;;;;;;;9.45;4.53;;;19.60;99.90;;;;;;4972504;28;20219;-64
2022/06/23 07:25:35;;;;;;;14.68;5.30;;;19.50;99.90;;;;;;4972252;28;20646;-64
2022/06/23 07:28:16;;;;;;;15.15;5.45;;;19.80;99.90;;;;;;4972269;28;20642;-64
2022/06/23 07:30:52;;;;;;;11.07;5.07;;;19.90;99.90;;;;;;4972343;28;20168;-64
2022/06/23 07:33:24;;;;;;;16.35;5.60;;;21.20;99.90;;;;;;4972217;28;20253;-65
2022/06/23 07:36:26;;;;;;;13.35;4.97;;;20.10;99.90;;;;;;4972080;28;20261;-65
2022/06/23 07:39:14;;;;;;;11.65;4.70;;;20.40;99.90;;;;;;4965366;28;20188;-65
2022/06/23 07:41:59;;;;;;;11.25;4.00;;;20.40;99.90;;;;;;4971994;28;20211;-64
2022/06/23 07:44:36;;;;;;;10.32;3.55;;;20.30;99.90;;;;;;4971889;28;20587;-64
2022/06/23 07:47:02;;;;;;;8.27;3.75;;;20.40;99.90;;;;;;4970689;28;20179;-65
2022/06/23 07:49:31;;;;;;;10.80;4.18;;;20.60;99.90;;;;;;4970607;28;20590;-65
2022/06/23 07:51:57;;;;;;;8.75;4.22;;;20.90;99.90;;;;;;4971877;28;20259;-65
2022/06/23 07:54:23;;;;;;;12.23;3.75;;;21.20;99.90;;;;;;4971955;28;20250;-64
2022/06/23 07:56:50;;;;;;;10.15;4.05;;;21.30;99.90;;;;;;4971838;28;20203;-65
2022/06/23 07:59:18;;;;;;;7.18;4.03;;;21.40;99.90;;;;;;4971785;28;20187;-65
2022/06/23 08:02:00;;;;;;;8.65;4.13;;;21.70;99.90;;;;;;4971753;28;20511;-65
2022/06/23 08:04:37;;;;;;;16.70;4.38;;;21.90;99.90;;;;;;4971634;28;20662;-64
2022/06/23 08:07:08;;;;;;;9.10;4.03;;;21.80;99.90;;;;;;4972146;28;20176;-65
2022/06/23 08:09:36;;;;;;;11.45;4.28;;;21.80;99.90;;;;;;4971819;28;20186;-65
2022/06/23 08:17:54;;;;;;;8.48;4.20;;;21.70;99.90;;;;;;4975447;28;20740;-64
2022/06/23 08:20:23;;;;;;;21.23;4.97;;;21.80;99.90;;;;;;4975653;28;20203;-65
2022/06/23 08:22:53;;;;;;;6.55;3.40;;;21.80;99.90;;;;;;4975562;28;20206;-64
2022/06/23 08:25:18;;;;;;;6.60;3.38;;;22.00;99.90;;;;;;4975347;28;20622;-65
2022/06/23 08:27:46;;;;;;;12.52;3.75;;;22.00;99.90;;;;;;4975432;28;20187;-65
2022/06/23 08:30:16;;;;;;;14.90;3.88;;;22.20;99.90;;;;;;4975526;28;20666;-65
2022/06/23 08:32:45;;;;;;;10.15;3.22;;;22.30;99.90;;;;;;4975803;28;20246;-65
2022/06/23 08:35:25;;;;;;;9.88;3.15;;;22.50;99.90;;;;;;4975376;28;20176;-65
2022/06/23 08:38:14;;;;;;;7.65;3.00;;;23.00;99.90;;;;;;4975105;28;20207;-65
2022/06/23 08:40:58;;;;;;;6.43;2.78;;;23.10;99.90;;;;;;4975027;28;20211;-65
2022/06/23 08:43:45;;;;;;;7.72;2.63;;;23.30;99.90;;;;;;4975015;28;20180;-66
2022/06/23 08:46:33;;;;;;;10.32;2.85;;;23.40;99.90;;;;;;4975054;28;20684;-65
2022/06/23 08:49:16;;;;;;;6.47;1.77;;;23.90;99.90;;;;;;4975037;28;20168;-64
2022/06/23 08:52:08;;;;;;;6.28;1.77;;;24.60;99.90;;;;;;4974976;28;20171;-67
2022/06/23 08:55:06;;;;;;;4.88;1.60;;;24.60;99.90;;;;;;4974993;28;20745;-66
2022/06/23 08:57:53;;;;;;;7.00;1.80;;;24.80;99.90;;;;;;4974773;28;20227;-65
2022/06/23 09:00:32;;;;;;;2.33;1.33;;;25.10;99.90;;;;;;4974855;28;20210;-67
2022/06/23 09:03:08;;;;;;;5.72;1.50;;;25.50;99.90;;;;;;4974806;28;20230;-65
2022/06/23 09:06:09;;;;;;;3.75;1.00;;;25.50;99.90;;;;;;4974692;28;20630;-66
2022/06/23 09:09:07;;;;;;;2.85;1.15;;;25.70;99.90;;;;;;4974759;28;20183;-66
2022/06/23 09:11:40;;;;;;;5.05;1.20;;;25.70;99.90;;;;;;4959097;28;20215;-65
2022/06/23 09:14:30;;;;;;;3.38;0.93;;;25.40;99.90;;;;;;4974582;28;20187;-66
2022/06/23 09:17:02;;;;;;;3.58;0.88;;;25.70;99.90;;;;;;4974665;28;20274;-66
2022/06/23 09:19:28;;;;;;;2.85;1.10;;;;;;;;;;4974572;28;20180;-66
2022/06/23 09:22:15;;;;;;;2.25;0.77;;;25.50;99.90;;;;;;4974428;28;20176;-66
2022/06/23 09:24:58;;;;;;;4.53;1.20;;;24.90;99.90;;;;;;4973085;28;20199;-66
2022/06/23 09:27:42;;;;;;;1.20;0.80;;;25.60;99.90;;;;;;4974453;28;20267;-67
2022/06/23 09:30:36;;;;;;;1.17;0.77;;;25.90;99.90;;;;;;4972964;28;20175;-65
2022/06/23 09:33:21;;;;;;;2.28;0.80;;;25.90;99.90;;;;;;4974233;28;20259;-66
2022/06/23 09:36:11;;;;;;;3.85;1.08;;;26.00;99.90;;;;;;4974125;28;20182;-66
2022/06/23 09:39:02;;;;;;;1.38;0.88;;;26.00;99.90;;;;;;4974138;28;20211;-66
2022/06/23 09:41:27;;;;;;;4.32;0.88;;;25.90;99.90;;;;;;4973902;28;20631;-66
2022/06/23 09:44:08;;;;;;;3.25;1.00;;;25.90;99.90;;;;;;4974275;28;20180;-67
2022/06/23 09:47:03;;;;;;;2.65;0.93;;;26.10;99.90;;;;;;4972902;28;20180;-66
2022/06/23 09:49:34;;;;;;;2.63;0.82;;;25.40;99.90;;;;;;4965190;28;20274;-65
2022/06/23 09:52:16;;;;;;;3.90;1.10;;;25.80;99.90;;;;;;4973892;28;20222;-65
2022/06/23 09:54:53;;;;;;;4.60;1.00;;;25.80;99.90;;;;;;4973877;28;20164;-65
2022/06/23 09:57:53;;;;;;;4.82;1.25;;;25.10;99.90;;;;;;4973851;28;20273;-65
2022/06/23 10:00:43;;;;;;;3.55;1.40;;;24.80;99.90;;;;;;4973884;28;20255;-66
2022/06/23 10:03:35;;;;;;;3.75;1.27;;;24.20;99.90;;;;;;4973653;28;20176;-65
2022/06/23 10:06:00;;;;;;;5.18;1.50;;;24.20;99.90;;;;;;4973535;28;20282;-65
2022/06/23 10:08:48;;;;;;;3.47;1.67;;;23.60;99.90;;;;;;4973625;28;20650;-65
2022/06/23 10:11:13;;;;;;;4.95;1.40;;;23.20;99.90;;;;;;4973474;28;20177;-65
2022/06/23 10:13:49;;;;;;;9.40;1.73;;;23.30;99.90;;;;;;4973675;28;20279;-66
2022/06/23 10:16:49;;;;;;;5.53;1.20;;;23.20;99.90;;;;;;4973465;28;20199;-66
2022/06/23 10:19:36;;;;;;;6.47;1.40;;;23.10;99.90;;;;;;4973688;28;20176;-65
2022/06/23 10:22:35;;;;;;;5.35;1.40;;;23.10;99.90;;;;;;4973375;28;20184;-64
2022/06/23 10:25:25;;;;;;;2.22;0.88;;;23.00;99.90;;;;;;4973413;28;20183;-65
2022/06/23 10:28:15;;;;;;;6.28;1.20;;;22.90;99.90;;;;;;4973195;28;20255;-66
2022/06/23 10:30:56;;;;;;;5.43;1.00;;;22.80;99.90;;;;;;4973230;28;20688;-65
2022/06/23 10:33:43;;;;;;;3.92;1.20;;;23.20;99.90;;;;;;4973296;28;20176;-66
2022/06/23 10:36:14;;;;;;;5.50;1.17;;;23.10;99.90;;;;;;4972854;28;20282;-65
2022/06/23 10:39:01;;;;;;;2.22;1.40;;;23.60;99.90;;;;;;4973079;28;20194;-65
2022/06/23 10:41:42;;;;;;;6.75;1.30;;;24.40;99.90;;;;;;4972909;28;20168;-65
2022/06/23 10:44:35;;;;;;;4.40;1.25;;;24.20;99.90;;;;;;4973021;28;20176;-66
2022/06/23 10:47:26;;;;;;;3.65;1.50;;;24.00;99.90;;;;;;4973048;28;20172;-66
2022/06/23 10:50:20;;;;;;;11.10;2.03;;;23.90;99.90;;;;;;4971743;28;20187;-65
2022/06/23 10:52:48;;;;;;;2.83;1.05;;;24.20;99.90;;;;;;4973266;28;20176;-66
2022/06/23 10:55:30;;;;;;;4.50;1.50;;;24.60;99.90;;;;;;4974139;28;20231;-66
2022/06/23 10:58:23;;;;;;;3.60;1.55;;;24.70;99.90;;;;;;4973270;28;20204;-65
2022/06/23 11:01:22;;;;;;;3.08;1.50;;;25.00;99.90;;;;;;4973478;28;20258;-64
2022/06/23 11:04:30;;;;;;;2.08;1.23;;;25.40;99.90;;;;;;4972832;28;20639;-65
2022/06/23 11:07:15;;;;;;;1.73;1.00;;;25.20;99.90;;;;;;4963842;28;20203;-66
2022/06/23 11:10:02;;;;;;;4.85;1.38;;;24.20;99.90;;;;;;4972775;28;20267;-66
2022/06/23 11:13:03;;;;;;;3.97;1.00;;;23.90;99.90;;;;;;4972753;28;20182;-66
2022/06/23 11:15:32;;;;;;;7.40;0.90;;;23.40;99.90;;;;;;4950252;28;20222;-65
2022/06/23 11:18:10;;;;;;;2.47;1.02;;;23.40;99.90;;;;;;4972475;28;20204;-67
2022/06/23 11:21:00;;;;;;;2.92;0.82;;;24.00;99.90;;;;;;4972661;28;20172;-66
2022/06/23 11:23:44;;;;;;;2.47;1.10;;;24.30;99.90;;;;;;4972606;28;20171;-66
2022/06/23 11:26:35;;;;;;;2.10;1.13;;;24.40;99.90;;;;;;4972388;28;20188;-67
2022/06/23 11:29:17;;;;;;;5.47;0.88;;;24.50;99.90;;;;;;4972338;28;20175;-67
2022/06/23 11:32:04;;;;;;;2.22;0.90;;;24.10;99.90;;;;;;4972197;28;20210;-64
2022/06/23 11:34:48;;;;;;;3.00;1.10;;;24.00;99.90;;;;;;4972295;28;20199;-67
2022/06/23 11:37:46;;;;;;;1.77;1.05;;;24.40;99.90;;;;;;4972192;28;20570;-66
2022/06/23 11:40:22;;;;;;;2.88;0.95;;;24.70;99.90;;;;;;4972345;28;20254;-67
2022/06/23 11:43:13;;;;;;;1.58;1.00;;;25.30;99.90;;;;;;4972291;28;20199;-66
2022/06/23 11:45:54;;;;;;;3.25;1.42;;;25.50;99.90;;;;;;4972041;28;20646;-66
2022/06/23 11:48:30;;;;;;;5.70;1.23;;;25.70;99.90;;;;;;4971928;28;20638;-66
2022/06/23 11:51:19;;;;;;;2.15;1.08;;;25.60;99.90;;;;;;4972056;28;20175;-66
2022/06/23 11:54:09;;;;;;;5.22;1.48;;;25.40;99.90;;;;;;4971997;28;20227;-66
2022/06/23 11:57:03;;;;;;;3.78;1.33;;;25.20;99.90;;;;;;4971944;28;20214;-66
2022/06/23 11:59:44;;;;;;;4.63;1.42;;;25.00;99.90;;;;;;4972165;28;20191;-66
2022/06/23 12:02:10;;;;;;;3.38;1.67;;;;;;;;;;4971988;28;20263;-67
2022/06/23 12:04:38;;;;;;;6.40;2.00;;;24.50;99.90;;;;;;4971845;28;21847;-65
2022/06/23 12:07:19;;;;;;;3.50;1.80;;;24.20;99.90;;;;;;4971808;28;20247;-66
2022/06/23 12:09:56;;;;;;;5.65;1.50;;;24.50;99.90;;;;;;4972113;28;20175;-66
2022/06/23 12:12:23;;;;;;;5.50;1.80;;;24.90;99.90;;;;;;4971965;28;20172;-66
2022/06/23 12:14:50;;;;;;;7.00;1.75;;;25.00;99.90;;;;;;4971935;28;20246;-66
2022/06/23 12:17:29;;;;;;;2.42;1.50;;;24.50;99.90;;;;;;4971821;28;20215;-66
2022/06/23 12:20:16;;;;;;;3.10;1.83;;;24.10;99.90;;;;;;4971910;28;20587;-65
2022/06/23 12:23:03;;;;;;;7.13;1.80;;;24.20;99.90;;;;;;4971887;28;20533;-65
2022/06/23 12:25:43;;;;;;;4.25;1.70;;;24.80;99.90;;;;;;4971789;28;20176;-65
2022/06/23 12:28:23;;;;;;;5.70;1.90;;;25.00;99.90;;;;;;4971650;28;20172;-66
2022/06/23 12:31:11;;;;;;;6.43;1.48;;;25.20;99.90;;;;;;4971852;28;20202;-66
2022/06/23 12:33:43;;;;;;;7.15;2.13;;;24.70;99.90;;;;;;4971590;28;20187;-65
2022/06/23 12:36:24;;;;;;;3.13;1.70;;;24.50;99.90;;;;;;4971425;28;20207;-65
2022/06/23 12:38:52;;;;;;;4.03;1.92;;;24.50;99.90;;;;;;4971610;28;20532;-66
2022/06/23 12:41:24;;;;;;;6.25;1.80;;;24.20;99.90;;;;;;4971614;28;20231;-65
2022/06/23 12:44:08;;;;;;;3.85;1.90;;;24.60;99.90;;;;;;4971667;28;20768;-66
2022/06/23 12:46:55;;;;;;;12.98;2.22;;;24.30;99.90;;;;;;4971471;28;20172;-65
2022/06/23 12:49:36;;;;;;;3.65;1.77;;;24.00;99.90;;;;;;4971504;28;20176;-66
2022/06/23 12:52:25;;;;;;;7.20;2.05;;;24.30;99.90;;;;;;4971652;28;20226;-66
2022/06/23 12:55:16;;;;;;;4.70;2.33;;;24.40;99.90;;;;;;4971446;28;20726;-65
2022/06/23 12:58:13;;;;;;;4.47;1.73;;;24.20;99.90;;;;;;4971548;28;20238;-66
2022/06/23 13:01:26;;;;;;;2.88;1.85;;;24.00;99.90;;;;;;4974639;28;20168;-66
2022/06/23 13:03:55;;;;;;;4.78;1.60;;;24.10;99.90;;;;;;4934212;29;20299;-65
2022/06/23 13:06:43;;;;;;;3.58;1.95;;;24.10;99.90;;;;;;4933914;29;20235;-65
2022/06/23 13:09:29;;;;;;;6.32;1.95;;;23.70;99.90;;;;;;4960043;28;20188;-66
2022/06/23 13:12:06;;;;;;;4.05;1.90;;;24.90;99.90;;;;;;4974793;28;20184;-67
2022/06/23 13:14:53;;;;;;;6.65;2.25;;;23.10;99.90;;;;;;4974894;28;20180;-66
2022/06/23 13:17:38;;;;;;;8.77;2.58;;;23.30;99.90;;;;;;4974580;28;20282;-65
2022/06/23 13:20:22;;;;;;;7.07;2.30;;;23.20;99.90;;;;;;4974444;28;20218;-66
2022/06/23 13:22:56;;;;;;;6.55;2.78;;;23.30;99.90;;;;;;4974790;28;20168;-65
2022/06/23 13:25:35;;;;;;;8.52;2.33;;;23.50;99.90;;;;;;4974526;28;20207;-65
2022/06/23 13:28:03;;;;;;;6.82;2.30;;;23.80;99.90;;;;;;4974460;28;20379;-66
2022/06/23 13:30:39;;;;;;;5.00;2.35;;;24.00;99.90;;;;;;4974494;28;20531;-66
2022/06/23 13:33:28;;;;;;;6.90;2.50;;;23.90;99.90;;;;;;4974564;28;20218;-66
2022/06/23 13:36:01;;;;;;;6.65;2.30;;;24.60;99.90;;;;;;4974334;28;20204;-65
2022/06/23 13:38:58;;;;;;;4.65;2.60;;;24.80;99.90;;;;;;4974323;28;20180;-66
2022/06/23 13:41:29;;;;;;;8.35;3.03;;;25.30;99.90;;;;;;4957837;28;20335;-65
2022/06/23 13:44:31;;;;;;;8.73;2.85;;;25.20;99.90;;;;;;4974221;28;20168;-66
2022/06/23 13:47:11;;;;;;;9.23;3.55;;;25.00;99.90;;;;;;4974017;28;20171;-66
2022/06/23 13:50:01;;;;;;;12.02;3.58;;;25.00;99.90;;;;;;4974238;28;20183;-66
2022/06/23 13:52:42;;;;;;;10.38;3.80;;;24.60;99.90;;;;;;4973880;28;20708;-65
2022/06/23 13:55:21;;;;;;;11.45;4.65;;;24.30;99.90;;;;;;4974003;28;20263;-66
2022/06/23 13:57:52;;;;;;;9.90;3.88;;;24.60;99.90;;;;;;4973773;28;20678;-65
2022/06/23 14:00:25;;;;;;;10.50;4.00;;;24.30;99.90;;;;;;4973997;28;20207;-65